Time;durP1;ratioP1;P1;durP2;ratioP2;P2;SDS_P1;SDS_P2;PMS_P1;PMS_P2;Temp;Humidity;BMP_temperature;BMP_pressure;BME280_temperature;BME280_humidity;BME280_pressure;Samples;Min_cycle;Max_cycle;Signal;HPM_P1;HPM_P2
2021/03/04 00:02:17;;;;;;;21.63;11.68;;;;;;;8.79;63.66;101258.34;5009432;28;20133;-69
2021/03/04 00:04:43;;;;;;;17.67;10.73;;;;;;;8.80;63.68;101258.25;5003234;28;20056;-70
2021/03/04 00:07:09;;;;;;;19.98;11.93;;;;;;;8.87;63.03;101256.78;5007587;28;20033;-69
2021/03/04 00:09:34;;;;;;;15.73;9.65;;;;;;;8.85;62.62;101250.78;5008711;28;20064;-69
2021/03/04 00:11:59;;;;;;;15.60;8.75;;;;;;;8.90;62.51;101253.91;5008431;28;20034;-69
2021/03/04 00:14:25;;;;;;;20.30;10.80;;;;;;;8.98;61.94;101245.34;5008743;28;20037;-70
2021/03/04 00:16:50;;;;;;;17.42;9.88;;;;;;;9.00;61.39;101240.81;5008787;28;20199;-70
2021/03/04 00:19:15;;;;;;;13.60;7.68;;;;;;;8.97;62.14;101251.63;5009306;28;20031;-69
2021/03/04 00:21:41;;;;;;;15.77;10.55;;;;;;;8.66;64.84;101240.88;5008809;28;20030;-69
2021/03/04 00:24:06;;;;;;;11.45;6.75;;;;;;;8.64;63.49;101234.88;5008033;28;20319;-69
2021/03/04 00:26:33;;;;;;;8.30;5.13;;;;;;;8.66;63.47;101234.78;5008651;28;20049;-69
2021/03/04 00:28:58;;;;;;;12.65;6.65;;;;;;;8.73;63.28;101232.50;5008767;28;20469;-70
2021/03/04 00:31:24;;;;;;;15.18;9.05;;;;;;;8.80;62.67;101218.69;5009560;28;20129;-69
2021/03/04 00:33:49;;;;;;;12.25;7.60;;;;;;;8.85;62.33;101218.31;4998144;28;20049;-70
2021/03/04 00:36:14;;;;;;;7.72;4.88;;;;;;;8.84;61.68;101222.75;5008928;28;20044;-69
2021/03/04 00:38:40;;;;;;;7.55;4.50;;;;;;;8.81;62.09;101219.50;5008329;28;20076;-70
2021/03/04 00:41:05;;;;;;;5.82;3.60;;;;;;;8.81;62.08;101207.16;5009034;28;20037;-69
2021/03/04 00:43:30;;;;;;;10.95;6.88;;;;;;;8.83;62.51;101204.41;5009389;28;20100;-69
2021/03/04 00:45:55;;;;;;;9.38;5.50;;;;;;;8.80;62.44;101204.66;5009098;28;20038;-70
2021/03/04 00:48:21;;;;;;;6.43;4.00;;;;;;;8.77;62.34;101195.22;5006480;28;20121;-69
2021/03/04 00:50:46;;;;;;;7.60;4.90;;;;;;;8.76;62.59;101196.16;5008639;28;20038;-69
2021/03/04 00:53:11;;;;;;;8.23;5.60;;;;;;;8.76;62.59;101195.31;5007251;28;20124;-69
2021/03/04 00:55:37;;;;;;;9.48;5.57;;;;;;;8.70;63.18;101196.66;5008655;28;20418;-69
2021/03/04 00:58:02;;;;;;;8.18;5.13;;;;;;;8.70;62.77;101204.56;5008666;28;20073;-69
2021/03/04 01:00:28;;;;;;;5.90;3.60;;;;;;;8.66;62.82;101196.06;5008053;28;20042;-69
2021/03/04 01:02:54;;;;;;;5.70;3.60;;;;;;;8.67;62.70;101196.88;5009151;28;20144;-69
2021/03/04 01:05:19;;;;;;;4.47;2.95;;;;;;;8.66;62.58;101188.16;5002106;28;20026;-69
2021/03/04 01:07:45;;;;;;;7.32;4.43;;;;;;;8.68;62.71;101182.75;5008254;28;20049;-69
2021/03/04 01:10:13;;;;;;;9.07;5.47;;;;;;;8.57;63.38;101178.34;5007512;28;20100;-70
2021/03/04 01:12:39;;;;;;;7.95;4.40;;;;;;;8.56;63.17;101187.22;5008742;28;20038;-69
2021/03/04 01:15:16;;;;;;;5.75;3.53;;;;;;;8.48;64.21;101184.34;5009115;28;20637;-69
2021/03/04 01:17:42;;;;;;;6.35;3.60;;;;;;;8.45;63.33;101182.78;5008244;28;20041;-69
2021/03/04 01:20:13;;;;;;;6.47;4.30;;;;;;;8.48;63.15;101181.69;5007438;28;20525;-70
2021/03/04 01:22:38;;;;;;;9.18;5.35;;;;;;;8.39;63.88;101188.53;5006476;28;20046;-70
2021/03/04 01:25:05;;;;;;;6.40;3.60;;;;;;;8.37;63.43;101184.34;5011520;28;20111;-69
2021/03/04 01:27:30;;;;;;;7.22;4.60;;;;;;;8.34;63.94;101176.66;5012186;28;20044;-69
2021/03/04 01:29:56;;;;;;;6.03;3.88;;;;;;;8.32;63.70;101178.56;5012290;28;20117;-69
2021/03/04 01:32:22;;;;;;;7.45;3.90;;;;;;;8.28;63.54;101176.19;5011276;28;20301;-69
2021/03/04 01:34:47;;;;;;;9.52;5.53;;;;;;;8.35;63.42;101171.28;5012432;28;20053;-71
2021/03/04 01:37:12;;;;;;;16.15;8.75;;;;;;;8.42;63.90;101161.94;5011831;28;20058;-69
2021/03/04 01:39:37;;;;;;;9.13;5.90;;;;;;;8.39;63.93;101170.06;5012140;28;20044;-69
2021/03/04 01:42:03;;;;;;;5.53;3.17;;;;;;;8.37;63.85;101158.81;5012292;28;20041;-70
2021/03/04 01:44:28;;;;;;;5.15;2.55;;;;;;;8.38;63.53;101157.00;5011442;28;20033;-69
2021/03/04 01:46:54;;;;;;;13.75;8.55;;;;;;;8.45;63.73;101152.97;5011583;28;20549;-69
2021/03/04 01:49:20;;;;;;;15.45;10.13;;;;;;;8.44;64.01;101148.66;5011586;28;20068;-70
2021/03/04 01:51:46;;;;;;;12.52;7.72;;;;;;;8.39;64.04;101154.25;5011218;28;20042;-70
2021/03/04 01:54:12;;;;;;;8.13;5.30;;;;;;;8.33;64.01;101151.28;5011345;28;20038;-69
2021/03/04 01:56:37;;;;;;;11.98;7.28;;;;;;;8.35;64.30;101144.09;5011108;28;20046;-69
2021/03/04 01:59:03;;;;;;;12.32;7.90;;;;;;;8.35;63.94;101139.66;4999505;28;20034;-69
2021/03/04 02:01:28;;;;;;;11.07;5.88;;;;;;;8.35;63.73;101128.28;5010257;28;20048;-69
2021/03/04 02:03:54;;;;;;;11.35;5.57;;;;;;;8.29;64.52;101130.44;5006377;28;20033;-69
2021/03/04 02:06:25;;;;;;;8.10;5.93;;;;;;;8.24;64.39;101129.13;5010872;28;20152;-69
2021/03/04 02:08:58;;;;;;;13.77;8.50;;;;;;;8.26;64.19;101120.13;5006673;28;20694;-69
2021/03/04 02:11:35;;;;;;;14.48;8.88;;;;;;;8.27;63.40;101105.16;5001770;28;20033;-69
2021/03/04 02:14:21;;;;;;;10.10;5.72;;;;;;;8.24;63.83;101114.13;5011298;28;20052;-69
2021/03/04 02:16:55;;;;;;;11.45;6.80;;;;;;;8.22;62.25;101100.28;5009888;28;20025;-69
2021/03/04 02:19:53;;;;;;;9.55;5.75;;;;;;;8.19;63.88;101100.50;5011238;28;20367;-69
2021/03/04 02:22:23;;;;;;;8.52;5.60;;;;;;;8.07;64.39;101104.13;5010925;28;20041;-69
2021/03/04 02:24:59;;;;;;;11.63;7.28;;;;;;;7.96;65.44;101101.47;5011361;28;20038;-69
2021/03/04 02:27:27;;;;;;;9.23;5.28;;;;;;;7.96;64.13;101093.56;4991795;28;20038;-69
2021/03/04 02:30:07;;;;;;;16.70;7.90;;;;;;;8.06;63.48;101099.81;5008830;28;20065;-69
2021/03/04 02:32:35;;;;;;;17.08;9.70;;;;;;;8.14;62.68;101097.41;4995200;28;20113;-69
2021/03/04 02:35:12;;;;;;;17.88;9.70;;;;;;;8.19;62.46;101102.31;5010323;28;20087;-70
2021/03/04 02:37:42;;;;;;;15.15;8.77;;;;;;;8.22;62.44;101099.41;5004646;28;20034;-69
2021/03/04 02:40:10;;;;;;;16.23;9.70;;;;;;;8.18;62.52;101096.22;5010459;28;20080;-69
2021/03/04 02:42:38;;;;;;;17.63;9.88;;;;;;;8.22;62.13;101088.88;5010127;28;20030;-69
2021/03/04 02:45:05;;;;;;;16.77;9.75;;;;;;;8.23;61.92;101099.31;5009379;28;20034;-69
2021/03/04 02:47:32;;;;;;;20.58;11.40;;;;;;;8.28;61.61;101091.03;5010111;28;20166;-69
2021/03/04 02:49:58;;;;;;;18.70;9.85;;;;;;;8.26;61.85;101087.69;5010722;28;20057;-68
2021/03/04 02:52:24;;;;;;;17.73;10.75;;;;;;;8.28;61.28;101078.69;5010368;28;20495;-70
2021/03/04 02:54:50;;;;;;;16.58;9.57;;;;;;;8.20;61.51;101078.47;5010407;28;20034;-69
2021/03/04 02:57:19;;;;;;;17.08;9.07;;;;;;;8.19;61.44;101082.06;5009796;28;20410;-69
2021/03/04 02:59:45;;;;;;;13.70;8.15;;;;;;;8.15;61.67;101075.38;5010419;28;20068;-70
2021/03/04 03:02:13;;;;;;;12.90;8.10;;;;;;;8.13;61.72;101076.44;5011027;28;20046;-69
2021/03/04 03:04:40;;;;;;;17.63;10.60;;;;;;;8.14;61.77;101072.88;5004454;28;20037;-69
2021/03/04 03:07:08;;;;;;;19.65;10.35;;;;;;;8.09;62.00;101065.31;5010273;28;20129;-69
2021/03/04 03:09:34;;;;;;;16.10;9.65;;;;;;;8.04;61.85;101059.59;5009971;28;20042;-70
2021/03/04 03:12:00;;;;;;;16.35;9.52;;;;;;;8.04;61.82;101051.69;5009868;28;20076;-70
2021/03/04 03:14:28;;;;;;;15.95;9.98;;;;;;;8.06;61.79;101049.78;5009129;28;20101;-69
2021/03/04 03:16:53;;;;;;;16.52;9.88;;;;;;;8.04;61.38;101041.97;5010762;28;20170;-69
2021/03/04 03:19:18;;;;;;;14.20;9.05;;;;;;;8.05;61.49;101033.09;5009802;28;20121;-69
2021/03/04 03:21:44;;;;;;;12.73;8.10;;;;;;;8.03;61.57;101042.09;5010176;28;20506;-69
2021/03/04 03:24:09;;;;;;;10.63;6.13;;;;;;;7.98;61.63;101039.81;5009091;28;20034;-69
2021/03/04 03:26:36;;;;;;;17.27;8.70;;;;;;;7.73;63.72;101035.69;5008581;28;20034;-69
2021/03/04 03:29:01;;;;;;;14.15;8.65;;;;;;;7.51;63.69;101039.16;5010030;28;20065;-69
2021/03/04 03:31:30;;;;;;;10.93;7.07;;;;;;;7.39;63.50;101035.69;5009998;28;20042;-69
2021/03/04 03:33:57;;;;;;;13.75;7.90;;;;;;;7.20;65.26;101035.44;5009578;28;20037;-69
2021/03/04 03:36:23;;;;;;;7.65;4.75;;;;;;;7.17;64.67;101040.91;5008891;28;20038;-69
2021/03/04 03:38:49;;;;;;;12.55;7.75;;;;;;;7.00;66.21;101042.19;5008327;28;20280;-69
2021/03/04 03:41:19;;;;;;;13.00;8.25;;;;;;;6.89;65.62;101037.75;5010036;28;20491;-70
2021/03/04 03:43:46;;;;;;;9.35;6.20;;;;;;;6.89;65.36;101042.16;5009948;28;20101;-69
2021/03/04 03:46:13;;;;;;;10.75;5.53;;;;;;;6.93;65.03;101043.59;5004688;28;20313;-69
2021/03/04 03:48:39;;;;;;;8.52;5.13;;;;;;;6.92;64.71;101037.53;5001924;28;20045;-69
2021/03/04 03:51:05;;;;;;;13.93;7.30;;;;;;;6.96;64.72;101044.22;5009674;28;20176;-70
2021/03/04 03:53:31;;;;;;;12.10;6.47;;;;;;;6.95;65.10;101042.53;5009691;28;20118;-69
2021/03/04 03:55:57;;;;;;;10.52;5.60;;;;;;;7.00;64.39;101044.81;5009787;28;20131;-69
2021/03/04 03:58:25;;;;;;;6.43;3.80;;;;;;;6.99;64.58;101041.38;5009239;28;20034;-69
2021/03/04 04:00:56;;;;;;;7.40;4.40;;;;;;;7.03;64.65;101049.84;5009279;28;20395;-69
2021/03/04 04:03:22;;;;;;;14.93;8.88;;;;;;;7.10;64.48;101043.16;5009502;28;20034;-69
2021/03/04 04:05:48;;;;;;;15.35;8.60;;;;;;;7.14;64.53;101041.97;5001393;28;20042;-69
2021/03/04 04:08:14;;;;;;;13.48;8.45;;;;;;;7.21;64.12;101043.19;5008446;28;20037;-69
2021/03/04 04:10:39;;;;;;;15.00;8.48;;;;;;;7.26;64.04;101039.38;5007342;28;20042;-69
2021/03/04 04:13:05;;;;;;;8.55;5.53;;;;;;;7.22;64.01;101030.88;5009679;28;20548;-69
2021/03/04 04:15:30;;;;;;;15.90;8.95;;;;;;;7.25;64.05;101030.66;5009817;28;20045;-70
2021/03/04 04:17:58;;;;;;;14.82;8.65;;;;;;;7.21;64.29;101030.03;5009036;28;20057;-69
2021/03/04 04:20:24;;;;;;;8.90;5.63;;;;;;;7.07;65.13;101030.25;5008734;28;20045;-70
2021/03/04 04:22:52;;;;;;;10.88;6.18;;;;;;;6.94;65.91;101019.00;5009760;28;20071;-69
2021/03/04 04:25:20;;;;;;;6.72;4.35;;;;;;;6.92;65.18;101015.66;5009054;28;20135;-69
2021/03/04 04:27:45;;;;;;;7.38;4.40;;;;;;;6.91;65.13;101016.59;5009177;28;20515;-69
2021/03/04 04:30:11;;;;;;;8.02;5.03;;;;;;;6.92;65.13;101020.91;4994995;28;20065;-69
2021/03/04 04:32:37;;;;;;;6.70;3.95;;;;;;;6.88;65.22;101014.22;5009493;28;20030;-69
2021/03/04 04:35:03;;;;;;;5.82;3.90;;;;;;;6.86;65.82;101009.06;5008232;28;20048;-69
2021/03/04 04:37:28;;;;;;;15.23;8.05;;;;;;;6.92;65.63;101013.03;5009289;28;20410;-69
2021/03/04 04:39:53;;;;;;;20.45;9.50;;;;;;;6.87;66.21;101010.75;5007726;28;20042;-69
2021/03/04 04:42:19;;;;;;;11.38;7.03;;;;;;;6.83;65.73;101006.66;5008868;28;20537;-70
2021/03/04 04:44:44;;;;;;;14.60;8.38;;;;;;;6.85;66.04;101007.38;5008758;28;20063;-69
2021/03/04 04:47:09;;;;;;;9.50;5.50;;;;;;;6.81;66.64;100996.25;5008605;28;20149;-69
2021/03/04 04:49:35;;;;;;;9.00;5.75;;;;;;;6.70;66.54;100998.88;5009087;28;20041;-69
2021/03/04 04:52:00;;;;;;;6.93;4.43;;;;;;;6.67;67.15;100999.09;5009398;28;20096;-69
2021/03/04 04:54:25;;;;;;;9.68;5.35;;;;;;;6.70;66.33;100996.25;5008509;28;20030;-69
2021/03/04 04:56:51;;;;;;;15.05;8.27;;;;;;;6.75;66.74;100990.66;5008980;28;20042;-69
2021/03/04 04:59:16;;;;;;;12.75;7.43;;;;;;;6.72;67.00;100983.84;5010358;28;20129;-69
2021/03/04 05:01:41;;;;;;;14.70;8.32;;;;;;;6.75;66.95;100983.59;5012308;28;20038;-69
2021/03/04 05:04:07;;;;;;;10.70;6.50;;;;;;;6.73;66.81;100974.97;5012331;28;20050;-69
2021/03/04 05:06:32;;;;;;;10.88;6.45;;;;;;;6.72;67.37;100980.34;5013210;28;20089;-69
2021/03/04 05:08:57;;;;;;;6.18;3.72;;;;;;;6.70;67.34;100985.72;5012547;28;20038;-69
2021/03/04 05:11:23;;;;;;;5.72;3.75;;;;;;;6.70;67.49;100983.09;5012730;28;20065;-69
2021/03/04 05:13:48;;;;;;;7.35;4.05;;;;;;;6.68;67.21;100976.28;5012034;28;20033;-69
2021/03/04 05:16:13;;;;;;;6.40;3.75;;;;;;;6.68;67.96;100986.81;5011582;28;20034;-69
2021/03/04 05:18:39;;;;;;;8.30;4.78;;;;;;;6.62;67.38;100987.25;5011821;28;20125;-69
2021/03/04 05:21:05;;;;;;;5.68;3.28;;;;;;;6.65;67.84;100982.63;5012670;28;20041;-69
2021/03/04 05:23:31;;;;;;;12.88;7.10;;;;;;;6.75;67.05;100977.50;5012286;28;20042;-69
2021/03/04 05:25:57;;;;;;;12.52;6.60;;;;;;;6.74;67.59;100975.81;5012867;28;20034;-69
2021/03/04 05:28:22;;;;;;;13.07;7.65;;;;;;;6.79;67.19;100973.66;5011270;28;20116;-70
2021/03/04 05:30:47;;;;;;;13.65;7.28;;;;;;;6.77;67.22;100971.19;5012239;28;20034;-69
2021/03/04 05:33:13;;;;;;;10.38;5.68;;;;;;;6.78;67.21;100970.22;5011790;28;20033;-69
2021/03/04 05:35:38;;;;;;;11.32;6.38;;;;;;;6.83;66.95;100974.28;5013244;28;20471;-70
2021/03/04 05:38:03;;;;;;;10.07;5.50;;;;;;;6.79;67.07;100973.66;5012547;28;20062;-69
2021/03/04 05:40:29;;;;;;;9.07;5.20;;;;;;;6.77;67.13;100968.53;5011546;28;20407;-69
2021/03/04 05:42:55;;;;;;;12.20;5.85;;;;;;;6.70;68.97;100972.59;5012754;28;20120;-69
2021/03/04 05:45:23;;;;;;;8.70;5.60;;;;;;;6.64;67.58;100970.41;5012756;28;20258;-70
2021/03/04 05:47:48;;;;;;;9.90;5.65;;;;;;;6.66;67.45;100963.25;5010799;28;20034;-69
2021/03/04 05:50:16;;;;;;;16.60;8.02;;;;;;;6.74;67.04;100963.50;5011377;28;20030;-69
2021/03/04 05:52:49;;;;;;;12.80;8.00;;;;;;;6.79;66.61;100968.41;5011991;28;20210;-69
2021/03/04 05:55:16;;;;;;;15.07;8.43;;;;;;;6.84;66.73;100976.81;5012406;28;20045;-69
2021/03/04 05:57:45;;;;;;;12.90;7.63;;;;;;;6.86;66.41;100969.63;5011318;28;20026;-68
2021/03/04 06:00:12;;;;;;;19.45;10.18;;;;;;;6.98;65.98;100970.47;5011582;28;20037;-69
2021/03/04 06:02:39;;;;;;;17.65;10.52;;;;;;;7.07;65.29;100967.16;5010419;28;20034;-69
2021/03/04 06:05:05;;;;;;;19.83;10.05;;;;;;;7.15;64.94;100969.19;5002823;28;20399;-70
2021/03/04 06:07:31;;;;;;;20.27;10.88;;;;;;;7.21;64.40;100961.66;5011911;28;20038;-69
2021/03/04 06:09:56;;;;;;;15.55;9.07;;;;;;;7.25;64.42;100956.19;5010755;28;20037;-69
2021/03/04 06:12:21;;;;;;;15.30;9.35;;;;;;;7.30;63.92;100956.66;5010078;28;20037;-69
2021/03/04 06:14:47;;;;;;;11.05;6.43;;;;;;;7.27;64.44;100957.72;5010932;28;20128;-70
2021/03/04 06:17:15;;;;;;;18.08;9.15;;;;;;;7.36;63.95;100956.16;5011580;28;20125;-69
2021/03/04 06:19:50;;;;;;;13.48;8.35;;;;;;;7.36;64.39;100950.88;5010893;28;20269;-69
2021/03/04 06:22:31;;;;;;;15.68;8.95;;;;;;;7.39;63.97;100950.66;5011652;28;20100;-69
2021/03/04 06:24:59;;;;;;;15.77;9.05;;;;;;;7.47;63.77;100952.69;5007743;28;20038;-70
2021/03/04 06:27:32;;;;;;;17.35;9.43;;;;;;;7.52;63.87;100959.25;5010062;28;20084;-69
2021/03/04 06:29:59;;;;;;;21.95;11.18;;;;;;;7.60;63.15;100950.75;5007549;28;20037;-69
2021/03/04 06:32:26;;;;;;;17.80;10.30;;;;;;;7.65;62.92;100961.72;5007349;28;20034;-69
2021/03/04 06:35:05;;;;;;;14.75;8.65;;;;;;;7.56;63.58;100963.31;5010565;28;20498;-69
2021/03/04 06:37:32;;;;;;;15.20;8.43;;;;;;;7.42;65.21;100961.78;5010985;28;20341;-69
2021/03/04 06:39:57;;;;;;;14.88;8.55;;;;;;;7.30;65.14;100967.16;5009251;28;20042;-70
2021/03/04 06:42:23;;;;;;;13.57;7.68;;;;;;;7.23;64.81;100967.63;5009212;28;20042;-70
2021/03/04 06:44:54;;;;;;;13.25;8.60;;;;;;;7.28;64.68;100959.38;5011320;28;20040;-69
2021/03/04 06:47:27;;;;;;;18.23;10.35;;;;;;;7.39;64.14;100956.75;5010545;28;20053;-69
2021/03/04 06:49:53;;;;;;;18.27;9.73;;;;;;;7.57;63.55;100951.81;5011094;28;20062;-69
2021/03/04 06:52:30;;;;;;;20.30;11.40;;;;;;;7.75;62.76;100946.06;5010269;28;20034;-69
2021/03/04 06:55:08;;;;;;;19.00;10.38;;;;;;;7.80;62.57;100936.00;5010727;28;20064;-69
2021/03/04 06:57:34;;;;;;;20.75;11.73;;;;;;;7.96;62.27;100930.31;5010234;28;20064;-69
2021/03/04 06:59:59;;;;;;;22.20;12.00;;;;;;;8.04;62.18;100934.00;5010445;28;20038;-69
2021/03/04 07:02:29;;;;;;;17.23;10.43;;;;;;;8.11;62.21;100942.25;5009933;28;20085;-70
2021/03/04 07:05:02;;;;;;;22.92;13.60;;;;;;;8.28;61.21;100928.50;5003156;28;20504;-69
2021/03/04 07:07:29;;;;;;;21.13;11.18;;;;;;;8.37;61.04;100934.81;5010494;28;20045;-69
2021/03/04 07:09:56;;;;;;;22.58;12.35;;;;;;;8.44;60.72;100922.84;5010355;28;20313;-69
2021/03/04 07:12:23;;;;;;;20.98;11.50;;;;;;;8.49;60.55;100931.19;5009993;28;20475;-69
2021/03/04 07:14:50;;;;;;;18.60;10.52;;;;;;;8.55;60.54;100929.00;5010025;28;20036;-69
2021/03/04 07:17:22;;;;;;;20.60;10.77;;;;;;;8.66;59.99;100929.78;5010205;28;20040;-69
2021/03/04 07:19:56;;;;;;;20.10;11.52;;;;;;;8.67;60.37;100931.44;5010171;28;20069;-70
2021/03/04 07:22:21;;;;;;;20.50;12.13;;;;;;;8.92;58.89;100937.28;5008805;28;20038;-69
2021/03/04 07:24:47;;;;;;;18.95;10.93;;;;;;;9.05;58.35;100927.34;5010084;28;20038;-69
2021/03/04 07:27:15;;;;;;;21.48;11.60;;;;;;;9.08;58.63;100939.44;5009463;28;20026;-69
2021/03/04 07:29:42;;;;;;;18.02;11.32;;;;;;;9.13;58.58;100930.16;4998929;28;20034;-69
2021/03/04 07:32:08;;;;;;;20.45;11.23;;;;;;;9.23;57.80;100913.53;5009190;28;20069;-69
2021/03/04 07:34:35;;;;;;;23.50;12.00;;;;;;;9.32;57.95;100910.94;5009738;28;20057;-69
2021/03/04 07:37:01;;;;;;;21.15;11.43;;;;;;;9.59;57.69;100906.81;5007596;28;20034;-69
2021/03/04 07:39:39;;;;;;;19.73;11.57;;;;;;;9.81;56.64;100903.09;5008883;28;20057;-70
2021/03/04 07:42:22;;;;;;;19.40;11.93;;;;;;;9.84;55.83;100908.09;5010073;28;20034;-69
2021/03/04 07:44:48;;;;;;;22.38;12.75;;;;;;;9.92;56.01;100905.63;5009610;28;20042;-69
2021/03/04 07:47:13;;;;;;;20.83;12.25;;;;;;;9.86;56.32;100900.88;5007887;28;20036;-70
2021/03/04 07:49:42;;;;;;;20.98;11.13;;;;;;;9.82;55.93;100904.78;5009263;28;20026;-68
2021/03/04 07:52:13;;;;;;;23.25;13.15;;;;;;;9.86;54.69;100892.94;5006089;28;20038;-69
2021/03/04 07:54:44;;;;;;;19.77;11.50;;;;;;;9.60;55.55;100890.00;5011429;28;20034;-69
2021/03/04 07:57:11;;;;;;;22.38;10.98;;;;;;;9.62;55.20;100884.59;5016932;28;20239;-69
2021/03/04 07:59:57;;;;;;;18.45;11.48;;;;;;;9.61;55.96;100888.22;5013485;28;20038;-69
2021/03/04 08:02:31;;;;;;;18.90;10.52;;;;;;;9.62;56.24;100884.59;4987662;28;20157;-70
2021/03/04 08:05:16;;;;;;;18.17;9.80;;;;;;;9.38;56.92;100896.34;4992096;28;20038;-70
2021/03/04 08:07:43;;;;;;;23.27;12.20;;;;;;;9.50;56.54;100900.53;5005871;28;20094;-69
2021/03/04 08:10:10;;;;;;;19.08;11.30;;;;;;;9.46;56.48;100907.09;5008593;28;20046;-68
2021/03/04 08:12:49;;;;;;;23.48;12.07;;;;;;;9.49;56.35;100904.16;5012511;28;20068;-69
2021/03/04 08:15:16;;;;;;;22.05;12.18;;;;;;;9.41;56.49;100911.09;5008670;28;20057;-69
2021/03/04 08:17:41;;;;;;;22.85;12.70;;;;;;;9.43;56.29;100901.22;5004359;28;20042;-69
2021/03/04 08:20:12;;;;;;;20.73;12.30;;;;;;;9.40;56.16;100899.69;5004915;28;20383;-69
2021/03/04 08:22:44;;;;;;;17.52;11.75;;;;;;;9.31;56.49;100906.59;5007894;28;20037;-69
2021/03/04 08:25:12;;;;;;;25.25;13.00;;;;;;;9.42;56.40;100907.50;5009222;28;20030;-69
2021/03/04 08:27:41;;;;;;;22.42;12.07;;;;;;;9.52;56.41;100898.59;5004435;28;20133;-69
2021/03/04 08:30:08;;;;;;;23.85;13.02;;;;;;;9.65;56.11;100905.44;5007244;28;20034;-69
2021/03/04 08:32:36;;;;;;;24.27;13.93;;;;;;;9.84;55.58;100897.53;5011210;28;20037;-69
2021/03/04 08:35:02;;;;;;;19.65;11.70;;;;;;;10.20;55.02;100892.53;5015551;28;20069;-69
2021/03/04 08:37:29;;;;;;;19.75;11.52;;;;;;;10.91;53.45;100893.94;5018762;28;20034;-70
2021/03/04 08:40:00;;;;;;;20.52;11.68;;;;;;;11.93;51.55;100898.28;5013495;28;20153;-70
2021/03/04 08:42:26;;;;;;;18.52;10.57;;;;;;;12.69;50.09;100903.84;5013754;28;20401;-69
2021/03/04 08:44:51;;;;;;;21.98;11.35;;;;;;;13.60;46.70;100894.47;5016502;28;20116;-70
2021/03/04 08:47:17;;;;;;;20.60;12.25;;;;;;;14.21;44.37;100893.22;5017046;28;20054;-69
2021/03/04 08:49:51;;;;;;;20.88;11.98;;;;;;;14.53;43.41;100886.22;5015774;28;20030;-70
2021/03/04 08:52:24;;;;;;;20.02;11.82;;;;;;;15.13;41.78;100876.91;5016772;28;20044;-70
2021/03/04 08:54:52;;;;;;;16.92;10.50;;;;;;;15.33;41.50;100887.19;5033149;28;20545;-70
2021/03/04 08:57:25;;;;;;;16.20;10.07;;;;;;;15.59;41.16;100886.84;5015551;28;20522;-70
2021/03/04 09:00:11;;;;;;;18.85;11.15;;;;;;;16.31;38.73;100882.00;5013605;28;20025;-70
2021/03/04 09:02:37;;;;;;;20.73;11.48;;;;;;;16.47;38.80;100872.19;5011676;28;20038;-70
2021/03/04 09:05:07;;;;;;;18.15;10.15;;;;;;;16.91;37.87;100877.59;5014166;28;20108;-70
2021/03/04 09:07:50;;;;;;;21.98;11.68;;;;;;;16.56;38.39;100861.28;5014149;28;20035;-70
2021/03/04 09:10:15;;;;;;;20.42;12.52;;;;;;;16.26;37.34;100856.91;5013007;28;20030;-70
2021/03/04 09:12:47;;;;;;;17.95;11.55;;;;;;;16.29;37.98;100852.00;5015435;28;20034;-70
2021/03/04 09:15:20;;;;;;;18.02;10.95;;;;;;;16.77;37.50;100854.34;5015088;28;20495;-71
2021/03/04 09:17:46;;;;;;;20.13;10.63;;;;;;;17.08;37.90;100851.50;5014301;28;20045;-70
2021/03/04 09:20:14;;;;;;;18.63;11.05;;;;;;;17.59;36.03;100856.84;5016492;28;20422;-70
2021/03/04 09:22:43;;;;;;;16.95;11.32;;;;;;;17.55;35.36;100846.69;5015373;28;20120;-70
2021/03/04 09:25:18;;;;;;;19.58;10.32;;;;;;;17.60;34.98;100847.78;5014520;28;20030;-71
2021/03/04 09:27:44;;;;;;;18.88;10.18;;;;;;;17.46;36.11;100843.31;5007182;28;20038;-70
2021/03/04 09:30:10;;;;;;;17.45;10.52;;;;;;;17.81;35.19;100840.81;5013945;28;20052;-70
2021/03/04 09:32:36;;;;;;;22.10;11.82;;;;;;;18.10;34.86;100842.50;5015055;28;20116;-70
2021/03/04 09:35:10;;;;;;;18.42;12.02;;;;;;;18.09;34.93;100838.19;5014538;28;20029;-70
2021/03/04 09:37:35;;;;;;;18.48;11.70;;;;;;;18.48;33.85;100836.81;5011505;28;20386;-70
2021/03/04 09:40:00;;;;;;;19.05;12.25;;;;;;;18.39;34.09;100833.44;5014542;28;20034;-72
2021/03/04 09:42:36;;;;;;;19.50;12.45;;;;;;;18.39;33.90;100828.09;5024895;28;20044;-71
2021/03/04 09:45:05;;;;;;;15.88;10.68;;;;;;;18.19;34.95;100827.16;5016008;28;20065;-70
2021/03/04 09:47:32;;;;;;;18.60;11.40;;;;;;;18.16;34.67;100830.19;5011187;28;20045;-70
2021/03/04 09:50:00;;;;;;;19.13;11.07;;;;;;;17.89;34.59;100818.44;5010810;28;21377;-70
2021/03/04 09:52:31;;;;;;;20.33;11.90;;;;;;;17.62;35.74;100821.69;5010810;28;20041;-70
2021/03/04 09:55:11;;;;;;;;;;;;;;;17.19;36.57;100813.63;5005201;28;20033;-71
2021/03/04 09:57:40;;;;;;;18.65;11.40;;;;;;;16.68;37.02;100802.06;5011708;28;19944;-69
2021/03/04 10:00:17;;;;;;;19.48;12.02;;;;;;;16.31;37.58;100804.63;5014747;28;20028;-69
2021/03/04 10:02:45;;;;;;;19.17;11.52;;;;;;;15.64;39.35;100799.19;5017975;28;20057;-69
2021/03/04 10:05:19;;;;;;;19.17;11.48;;;;;;;15.46;39.43;100794.16;4998789;28;20125;-70
2021/03/04 10:07:50;;;;;;;18.27;11.20;;;;;;;15.27;40.94;100798.09;4993502;28;20037;-69
2021/03/04 10:10:22;;;;;;;20.47;11.00;;;;;;;15.10;40.21;100794.69;5007679;28;20144;-70
2021/03/04 10:12:52;;;;;;;20.20;11.10;;;;;;;14.79;41.08;100805.34;5011323;28;20042;-70
2021/03/04 10:15:34;;;;;;;19.27;11.52;;;;;;;14.58;41.94;100801.41;5011591;28;20390;-70
2021/03/04 10:18:10;;;;;;;15.73;10.13;;;;;;;14.27;42.73;100793.31;5006995;28;20114;-70
2021/03/04 10:20:37;;;;;;;19.02;11.68;;;;;;;13.87;43.48;100789.72;5005487;28;20041;-70
2021/03/04 10:23:03;;;;;;;21.08;11.98;;;;;;;13.80;44.27;100794.03;5011671;28;20133;-68
2021/03/04 10:25:29;;;;;;;16.75;10.10;;;;;;;13.66;44.92;100794.66;5018190;28;20510;-69
2021/03/04 10:27:57;;;;;;;18.05;10.32;;;;;;;13.83;45.04;100790.22;5012156;28;20084;-69
2021/03/04 10:30:23;;;;;;;18.10;10.73;;;;;;;14.14;45.10;100796.50;5010182;28;20130;-70
2021/03/04 10:32:48;;;;;;;18.08;10.27;;;;;;;14.40;44.83;100795.47;5011812;28;20125;-69
2021/03/04 10:35:15;;;;;;;18.95;10.88;;;;;;;14.62;43.38;100785.94;5011262;28;20034;-70
2021/03/04 10:37:41;;;;;;;16.35;9.48;;;;;;;14.71;44.00;100784.91;5010987;28;20081;-69
2021/03/04 10:40:08;;;;;;;22.60;10.93;;;;;;;14.92;42.81;100778.16;5010954;28;20037;-69
2021/03/04 10:42:35;;;;;;;20.50;10.45;;;;;;;14.90;42.83;100781.00;5011081;28;20062;-69
2021/03/04 10:45:01;;;;;;;20.15;11.23;;;;;;;14.78;43.40;100777.88;5011199;28;20030;-69
2021/03/04 10:47:30;;;;;;;16.02;9.13;;;;;;;14.56;43.12;100775.97;5011060;28;20041;-70
2021/03/04 10:49:56;;;;;;;18.92;10.52;;;;;;;14.54;43.93;100781.47;5009543;28;20430;-69
2021/03/04 10:52:23;;;;;;;17.58;10.25;;;;;;;14.68;43.83;100782.56;5009268;28;20096;-70
2021/03/04 10:54:49;;;;;;;17.95;8.85;;;;;;;14.67;43.69;100782.75;5011499;28;20030;-69
2021/03/04 10:57:14;;;;;;;22.33;10.02;;;;;;;14.73;43.54;100776.72;5015221;28;20069;-70
2021/03/04 10:59:39;;;;;;;15.27;8.95;;;;;;;14.65;43.99;100781.09;5010639;28;20025;-69
2021/03/04 11:02:05;;;;;;;16.02;9.40;;;;;;;14.92;44.04;100775.47;5010670;28;20142;-70
2021/03/04 11:04:30;;;;;;;17.52;10.25;;;;;;;15.06;43.38;100772.94;5012661;28;20122;-69
2021/03/04 11:06:56;;;;;;;17.48;8.65;;;;;;;14.72;43.48;100765.25;4986520;28;20100;-69
2021/03/04 11:09:21;;;;;;;17.02;9.63;;;;;;;14.97;44.52;100768.66;5010661;28;20442;-69
2021/03/04 11:11:47;;;;;;;19.48;9.38;;;;;;;15.24;42.13;100756.66;5011009;28;20038;-69
2021/03/04 11:14:12;;;;;;;17.90;9.25;;;;;;;15.25;41.69;100760.16;5009068;28;20284;-70
2021/03/04 11:16:37;;;;;;;21.75;10.07;;;;;;;15.26;42.09;100753.81;5010314;28;20066;-69
2021/03/04 11:19:04;;;;;;;14.20;7.97;;;;;;;15.17;42.42;100747.72;5016601;28;20049;-69
2021/03/04 11:21:29;;;;;;;15.77;8.38;;;;;;;15.10;42.99;100732.63;5010614;28;20053;-69
2021/03/04 11:23:55;;;;;;;15.20;9.35;;;;;;;15.28;42.28;100743.84;5010292;28;20029;-70
2021/03/04 11:26:20;;;;;;;21.20;8.63;;;;;;;15.33;42.22;100735.31;5010471;28;20625;-69